Time;durP1;ratioP1;P1;durP2;ratioP2;P2;SDS_P1;SDS_P2;PMS_P1;PMS_P2;Temp;Humidity;BMP_temperature;BMP_pressure;BME280_temperature;BME280_humidity;BME280_pressure;Samples;Min_cycle;Max_cycle;Signal;HPM_P1;HPM_P2
2024/01/23 00:02:01;;;;;;;5.57;3.17;;;1.50;90.80;;;;;;4991827;28;20072;-73
2024/01/23 00:04:27;;;;;;;6.05;3.20;;;1.40;91.00;;;;;;4992425;28;20041;-73
2024/01/23 00:06:53;;;;;;;5.88;2.72;;;1.40;90.80;;;;;;4992623;28;20662;-72
2024/01/23 00:09:18;;;;;;;8.63;3.10;;;1.30;91.20;;;;;;4991204;28;20041;-72
2024/01/23 00:11:44;;;;;;;5.15;2.55;;;1.30;91.10;;;;;;4991824;28;20058;-73
2024/01/23 00:14:10;;;;;;;9.52;3.40;;;1.30;91.10;;;;;;4992545;28;21006;-73
2024/01/23 00:16:36;;;;;;;6.03;3.13;;;1.30;91.20;;;;;;4991097;28;20121;-72
2024/01/23 00:19:02;;;;;;;5.53;2.65;;;1.30;91.20;;;;;;4991390;28;20091;-72
2024/01/23 00:21:28;;;;;;;6.88;3.55;;;1.30;91.60;;;;;;4991732;28;20038;-73
2024/01/23 00:23:53;;;;;;;9.23;5.05;;;1.00;91.80;;;;;;4991654;28;21003;-72
2024/01/23 00:26:19;;;;;;;8.68;3.60;;;1.10;92.30;;;;;;4991193;28;20061;-73
2024/01/23 00:28:45;;;;;;;7.32;3.95;;;0.80;92.30;;;;;;4991787;28;20056;-72
2024/01/23 00:31:11;;;;;;;6.18;3.30;;;0.80;91.90;;;;;;4991450;28;20060;-72
2024/01/23 00:33:37;;;;;;;6.75;3.05;;;1.00;92.10;;;;;;4992460;28;20255;-73
2024/01/23 00:36:03;;;;;;;6.65;3.28;;;1.00;91.50;;;;;;4991894;28;20109;-73
2024/01/23 00:38:28;;;;;;;6.97;3.55;;;1.00;91.90;;;;;;4973586;28;20044;-73
2024/01/23 00:40:54;;;;;;;9.65;3.60;;;1.00;92.50;;;;;;4991626;28;20061;-72
2024/01/23 00:43:20;;;;;;;6.05;3.10;;;0.90;92.70;;;;;;4991137;28;20144;-73
2024/01/23 00:45:45;;;;;;;7.07;3.65;;;0.60;92.40;;;;;;4989764;28;20113;-73
2024/01/23 00:48:11;;;;;;;6.63;3.25;;;1.00;91.50;;;;;;4991794;28;20045;-73
2024/01/23 00:50:37;;;;;;;10.20;3.70;;;1.00;91.70;;;;;;4994868;28;20026;-73
2024/01/23 00:53:02;;;;;;;7.07;3.83;;;1.00;91.40;;;;;;4994765;28;20037;-73
2024/01/23 00:55:28;;;;;;;5.82;2.65;;;1.10;91.30;;;;;;4995471;28;20033;-72
2024/01/23 00:57:54;;;;;;;8.65;3.80;;;0.90;91.60;;;;;;4999269;28;20092;-72
2024/01/23 01:00:20;;;;;;;7.25;3.17;;;0.80;91.80;;;;;;4998757;28;20100;-72
2024/01/23 01:02:45;;;;;;;7.57;3.20;;;0.80;92.00;;;;;;4999714;28;20486;-73
2024/01/23 01:05:11;;;;;;;6.38;3.65;;;0.90;91.80;;;;;;4998709;28;20029;-72
2024/01/23 01:07:36;;;;;;;7.18;3.65;;;1.00;91.80;;;;;;4999149;28;20038;-72
2024/01/23 01:10:04;;;;;;;6.40;3.33;;;1.00;91.70;;;;;;4999496;28;20060;-73
2024/01/23 01:12:30;;;;;;;9.60;3.53;;;0.90;91.80;;;;;;4999109;28;20087;-72
2024/01/23 01:14:55;;;;;;;6.25;2.97;;;1.10;91.70;;;;;;4998601;28;20039;-73
2024/01/23 01:17:21;;;;;;;4.65;2.63;;;1.10;91.80;;;;;;5000014;28;20044;-72
2024/01/23 01:19:48;;;;;;;7.38;3.15;;;1.00;91.70;;;;;;4998084;28;20034;-72
2024/01/23 01:22:14;;;;;;;5.47;2.55;;;1.10;91.80;;;;;;4999222;28;20049;-72
2024/01/23 01:24:39;;;;;;;7.55;2.88;;;0.90;92.00;;;;;;4998837;28;20045;-72
2024/01/23 01:27:06;;;;;;;6.28;2.80;;;1.00;91.90;;;;;;4998480;28;20045;-72
2024/01/23 01:29:31;;;;;;;6.53;3.03;;;1.00;91.70;;;;;;4998736;28;20207;-72
2024/01/23 01:31:57;;;;;;;5.47;2.92;;;1.00;91.70;;;;;;4999369;28;20045;-73
2024/01/23 01:34:23;;;;;;;6.60;3.05;;;0.90;93.20;;;;;;4998806;28;20549;-73
2024/01/23 01:36:48;;;;;;;5.82;3.25;;;0.70;93.20;;;;;;4998801;28;20033;-72
2024/01/23 01:39:14;;;;;;;6.55;2.88;;;0.80;92.20;;;;;;4999179;28;20109;-72
2024/01/23 01:41:40;;;;;;;6.00;2.47;;;0.90;92.20;;;;;;4998010;28;20049;-73
2024/01/23 01:44:07;;;;;;;6.43;2.85;;;0.80;92.10;;;;;;4998715;28;20026;-73
2024/01/23 01:46:33;;;;;;;6.90;2.83;;;0.80;92.20;;;;;;4998919;28;20057;-72
2024/01/23 01:48:59;;;;;;;4.93;2.42;;;0.90;92.10;;;;;;4997531;28;20116;-72
2024/01/23 01:51:27;;;;;;;7.03;3.05;;;0.90;92.40;;;;;;4998007;28;20569;-73
2024/01/23 01:53:53;;;;;;;6.57;3.25;;;0.70;92.90;;;;;;4998674;28;20037;-72
2024/01/23 01:56:22;;;;;;;7.47;3.55;;;0.30;94.30;;;;;;4997380;28;20786;-72
2024/01/23 01:58:48;;;;;;;6.70;3.65;;;0.30;94.20;;;;;;4997523;28;20113;-74
2024/01/23 02:01:14;;;;;;;7.13;2.83;;;0.30;93.80;;;;;;4998591;28;20038;-73
2024/01/23 02:03:40;;;;;;;6.32;2.63;;;0.70;92.40;;;;;;4998838;28;20531;-73
2024/01/23 02:06:07;;;;;;;6.03;2.95;;;0.70;92.80;;;;;;4997740;28;20037;-72
2024/01/23 02:08:35;;;;;;;6.00;2.42;;;0.40;93.20;;;;;;4997652;28;20128;-72
2024/01/23 02:11:02;;;;;;;6.50;2.80;;;0.50;92.80;;;;;;4998146;28;20065;-72
2024/01/23 02:13:28;;;;;;;4.90;2.50;;;0.80;91.90;;;;;;4998029;28;20129;-72
2024/01/23 02:15:55;;;;;;;4.97;2.10;;;0.80;92.20;;;;;;4998217;28;20091;-72
2024/01/23 02:18:20;;;;;;;5.65;2.30;;;0.80;92.20;;;;;;4997805;28;20038;-73
2024/01/23 02:20:46;;;;;;;7.38;2.95;;;0.80;92.60;;;;;;4996977;28;20040;-72
2024/01/23 02:23:16;;;;;;;7.38;2.67;;;0.80;92.10;;;;;;4998071;28;20503;-72
2024/01/23 02:25:43;;;;;;;8.40;2.50;;;0.90;91.70;;;;;;4997939;28;20053;-72
2024/01/23 02:28:10;;;;;;;5.65;2.67;;;1.00;91.90;;;;;;4997388;28;20061;-73
2024/01/23 02:30:35;;;;;;;7.07;2.60;;;1.10;91.50;;;;;;4998016;28;20431;-72
2024/01/23 02:33:05;;;;;;;5.43;2.22;;;1.00;91.70;;;;;;4997552;28;20044;-73
2024/01/23 02:35:32;;;;;;;5.60;2.40;;;1.00;91.60;;;;;;4997131;28;20046;-73
2024/01/23 02:37:58;;;;;;;7.82;2.85;;;0.90;92.00;;;;;;4996704;28;20037;-72
2024/01/23 02:40:24;;;;;;;7.60;3.65;;;0.70;92.40;;;;;;4998086;28;20037;-73
2024/01/23 02:42:49;;;;;;;7.78;3.67;;;0.80;91.80;;;;;;4996968;28;20108;-72
2024/01/23 02:45:15;;;;;;;8.23;2.83;;;0.70;92.00;;;;;;4996938;28;20151;-73
2024/01/23 02:47:41;;;;;;;5.93;2.40;;;0.70;92.20;;;;;;4997465;28;20706;-72
2024/01/23 02:50:07;;;;;;;5.28;2.15;;;0.70;92.00;;;;;;4997518;28;20118;-73
2024/01/23 02:52:34;;;;;;;4.75;2.55;;;0.70;91.90;;;;;;4996906;28;20065;-72
2024/01/23 02:54:59;;;;;;;4.38;2.25;;;0.80;91.80;;;;;;4997528;28;20621;-73
2024/01/23 02:57:26;;;;;;;6.13;2.55;;;0.80;91.80;;;;;;4996879;28;20056;-72
2024/01/23 02:59:54;;;;;;;5.15;2.35;;;0.80;91.90;;;;;;4997305;28;20116;-72
2024/01/23 03:02:24;;;;;;;4.22;2.10;;;0.70;92.20;;;;;;4997620;28;20087;-72
2024/01/23 03:04:49;;;;;;;6.53;2.50;;;0.60;92.50;;;;;;4997064;28;20034;-72
2024/01/23 03:07:17;;;;;;;6.30;2.70;;;0.70;91.90;;;;;;4996730;28;20044;-73
2024/01/23 03:09:43;;;;;;;8.10;3.45;;;0.60;92.00;;;;;;4997920;28;20038;-72
2024/01/23 03:12:16;;;;;;;8.85;2.95;;;1.10;91.00;;;;;;4996754;28;20045;-73
2024/01/23 03:14:43;;;;;;;9.05;2.60;;;1.00;91.40;;;;;;4996437;28;20104;-74
2024/01/23 03:17:12;;;;;;;7.10;3.53;;;0.90;92.00;;;;;;4995952;28;20038;-72
2024/01/23 03:19:39;;;;;;;5.63;2.60;;;0.60;92.80;;;;;;4996478;28;20034;-72
2024/01/23 03:22:05;;;;;;;7.10;3.45;;;0.30;95.20;;;;;;4996186;28;20109;-72
2024/01/23 03:24:31;;;;;;;9.65;3.05;;;0.10;93.70;;;;;;4996139;28;20042;-72
2024/01/23 03:26:57;;;;;;;6.63;3.25;;;0.20;93.20;;;;;;4996902;28;20422;-73
2024/01/23 03:29:27;;;;;;;4.68;2.58;;;0.70;92.20;;;;;;4997118;28;20057;-73
2024/01/23 03:31:52;;;;;;;6.57;2.70;;;0.50;92.50;;;;;;4996107;28;20034;-73
2024/01/23 03:34:19;;;;;;;6.07;3.08;;;0.80;91.90;;;;;;4997457;28;20053;-73
2024/01/23 03:36:45;;;;;;;6.60;2.95;;;0.90;91.90;;;;;;4996068;28;20033;-72
2024/01/23 03:39:11;;;;;;;10.85;3.58;;;0.80;92.30;;;;;;4996392;28;20049;-73
2024/01/23 03:41:37;;;;;;;6.40;3.03;;;0.90;91.90;;;;;;4996403;28;20503;-73
2024/01/23 03:44:06;;;;;;;6.50;3.10;;;0.80;92.10;;;;;;4996428;28;20073;-72
2024/01/23 03:46:32;;;;;;;6.20;3.70;;;0.60;92.50;;;;;;4995810;28;20079;-72
2024/01/23 03:48:57;;;;;;;7.10;3.50;;;0.80;92.30;;;;;;4996831;28;20091;-72
2024/01/23 03:51:23;;;;;;;7.68;4.05;;;0.70;92.40;;;;;;4997454;28;20042;-72
2024/01/23 03:53:49;;;;;;;9.07;3.92;;;1.00;92.00;;;;;;4995617;28;21080;-73
2024/01/23 03:56:15;;;;;;;5.30;3.47;;;1.00;92.00;;;;;;4995644;28;20046;-73
2024/01/23 03:58:42;;;;;;;7.15;3.30;;;1.00;91.80;;;;;;4996834;28;20069;-73
2024/01/23 04:01:08;;;;;;;6.97;3.45;;;0.90;91.90;;;;;;4996367;28;20041;-72
2024/01/23 04:03:34;;;;;;;5.47;3.28;;;0.80;92.00;;;;;;4991914;28;20042;-74
2024/01/23 04:06:00;;;;;;;5.30;2.55;;;0.50;92.70;;;;;;4991858;28;20042;-73
2024/01/23 04:08:26;;;;;;;9.35;3.75;;;0.60;92.30;;;;;;4991216;28;20053;-73
2024/01/23 04:10:51;;;;;;;7.13;3.20;;;0.60;92.50;;;;;;4990731;28;20081;-74
2024/01/23 04:13:17;;;;;;;6.05;3.05;;;0.80;92.00;;;;;;4991870;28;20048;-72
2024/01/23 04:15:43;;;;;;;5.68;2.88;;;0.80;92.10;;;;;;4972913;28;21008;-74
2024/01/23 04:18:08;;;;;;;10.27;3.30;;;0.70;92.30;;;;;;4988031;28;20087;-73
2024/01/23 04:20:34;;;;;;;6.63;3.05;;;0.70;92.30;;;;;;4989746;28;20469;-73
2024/01/23 04:23:00;;;;;;;6.60;3.28;;;0.40;92.70;;;;;;4988362;28;20480;-73
2024/01/23 04:25:25;;;;;;;6.28;2.78;;;0.50;92.60;;;;;;4992063;28;20535;-73
2024/01/23 04:27:52;;;;;;;6.65;2.78;;;0.50;92.40;;;;;;4992815;28;20061;-73
2024/01/23 04:30:19;;;;;;;4.95;2.70;;;0.20;93.20;;;;;;4991541;28;20595;-73
2024/01/23 04:32:47;;;;;;;7.53;2.83;;;0.10;93.40;;;;;;4991401;28;20053;-73
2024/01/23 04:35:13;;;;;;;7.55;3.00;;;0.20;93.10;;;;;;4992722;28;20136;-74
2024/01/23 04:37:39;;;;;;;6.10;2.85;;;0.60;92.40;;;;;;4991827;28;20087;-74
2024/01/23 04:40:07;;;;;;;7.68;3.13;;;1.00;91.70;;;;;;4990489;28;20452;-73
2024/01/23 04:42:33;;;;;;;8.38;3.05;;;0.90;91.80;;;;;;4991927;28;20245;-73
2024/01/23 04:44:59;;;;;;;7.40;3.60;;;0.60;92.20;;;;;;4992282;28;20057;-73
2024/01/23 04:47:25;;;;;;;8.43;3.40;;;0.60;92.10;;;;;;4991964;28;20922;-73
2024/01/23 04:49:52;;;;;;;7.15;2.85;;;0.60;92.30;;;;;;4992010;28;20104;-73
2024/01/23 04:52:17;;;;;;;6.03;3.22;;;0.30;93.20;;;;;;4992040;28;20484;-73
2024/01/23 04:54:43;;;;;;;6.93;2.78;;;0.10;93.50;;;;;;4991791;28;20117;-73
2024/01/23 04:57:10;;;;;;;6.07;2.97;;;0.30;92.90;;;;;;4991166;28;20095;-74
2024/01/23 04:59:35;;;;;;;5.20;2.70;;;0.20;93.00;;;;;;4989708;28;20048;-73
2024/01/23 05:02:01;;;;;;;5.05;2.40;;;0.10;93.10;;;;;;4970172;28;20769;-74
2024/01/23 05:04:27;;;;;;;5.50;2.53;;;-0.10;93.90;;;;;;4988025;28;21292;-73
2024/01/23 05:06:52;;;;;;;6.15;2.55;;;-0.10;93.80;;;;;;4989619;28;20476;-74
2024/01/23 05:09:19;;;;;;;7.03;2.95;;;0.10;93.40;;;;;;4987873;28;20216;-73
2024/01/23 05:11:46;;;;;;;7.88;2.90;;;0.40;92.80;;;;;;4970193;28;20073;-73
2024/01/23 05:14:13;;;;;;;6.78;3.10;;;0.30;92.60;;;;;;4988842;28;20065;-74
2024/01/23 05:16:38;;;;;;;6.93;2.92;;;0.30;92.90;;;;;;4989129;28;20108;-73
2024/01/23 05:19:04;;;;;;;6.87;2.47;;;0.30;93.20;;;;;;4987630;28;20838;-74
2024/01/23 05:21:30;;;;;;;6.78;2.78;;;0.20;93.10;;;;;;4989700;28;20072;-73
2024/01/23 05:23:55;;;;;;;6.80;3.30;;;0.20;93.60;;;;;;4988043;28;20041;-74
2024/01/23 05:26:21;;;;;;;5.32;3.33;;;0.00;93.80;;;;;;4989441;28;20586;-73
2024/01/23 05:28:47;;;;;;;5.65;2.78;;;-0.10;93.70;;;;;;4987104;28;20500;-74
2024/01/23 05:31:12;;;;;;;4.93;2.13;;;0.00;93.50;;;;;;4986844;28;20570;-74
2024/01/23 05:33:38;;;;;;;5.25;2.55;;;-0.20;94.10;;;;;;4988160;28;20046;-74
2024/01/23 05:36:05;;;;;;;9.55;2.42;;;-0.20;94.10;;;;;;4989829;28;20136;-74
2024/01/23 05:38:32;;;;;;;5.07;2.67;;;0.00;93.80;;;;;;4991575;28;20038;-74
2024/01/23 05:40:57;;;;;;;6.10;2.33;;;-0.20;93.90;;;;;;4991800;28;20041;-73
2024/01/23 05:43:23;;;;;;;5.75;2.67;;;-0.40;94.30;;;;;;4992569;28;20033;-73
2024/01/23 05:45:49;;;;;;;7.97;3.05;;;-0.30;94.40;;;;;;4991541;28;20495;-74
2024/01/23 05:48:15;;;;;;;5.30;2.70;;;-0.20;94.40;;;;;;4990757;28;20460;-73
2024/01/23 05:50:41;;;;;;;6.18;2.58;;;-0.10;94.10;;;;;;4991745;28;20049;-73
2024/01/23 05:53:06;;;;;;;4.30;2.35;;;-0.10;93.90;;;;;;4990474;28;20041;-74
2024/01/23 05:55:32;;;;;;;5.55;2.72;;;0.00;94.10;;;;;;4991441;28;20440;-74
2024/01/23 05:57:58;;;;;;;6.13;2.70;;;-0.20;94.00;;;;;;4991539;28;20165;-74
2024/01/23 06:00:24;;;;;;;7.30;3.15;;;-0.10;94.60;;;;;;4991338;28;20026;-73
2024/01/23 06:02:50;;;;;;;5.85;2.75;;;-0.20;94.40;;;;;;4991067;28;20041;-75
2024/01/23 06:05:15;;;;;;;8.50;3.15;;;-0.20;94.20;;;;;;4992058;28;20107;-73
2024/01/23 06:07:45;;;;;;;6.32;2.78;;;-0.40;94.60;;;;;;4989910;28;20044;-73
2024/01/23 06:10:10;;;;;;;4.55;2.40;;;-0.50;95.00;;;;;;4990491;28;20029;-74
2024/01/23 06:12:36;;;;;;;6.47;2.55;;;-0.40;95.20;;;;;;4991712;28;20514;-72
2024/01/23 06:15:02;;;;;;;10.40;2.95;;;-0.40;94.70;;;;;;4994149;28;20558;-72
2024/01/23 06:17:28;;;;;;;6.53;3.50;;;-0.20;94.40;;;;;;4994945;28;20561;-73
2024/01/23 06:19:54;;;;;;;7.78;3.40;;;-0.20;94.00;;;;;;4979059;28;20042;-75
2024/01/23 06:22:19;;;;;;;5.63;2.80;;;-0.20;94.00;;;;;;4975684;28;20042;-73
2024/01/23 06:25:05;;;;;;;6.65;2.90;;;-0.10;94.20;;;;;;4992436;28;20046;-73
2024/01/23 06:27:31;;;;;;;5.37;2.30;;;-0.10;94.40;;;;;;4994788;28;20038;-73
2024/01/23 06:29:57;;;;;;;8.13;3.17;;;-0.10;94.50;;;;;;4992109;28;20056;-73
2024/01/23 06:32:24;;;;;;;5.17;2.60;;;0.00;93.70;;;;;;4993294;28;20038;-73
2024/01/23 06:34:50;;;;;;;5.63;2.70;;;-0.10;94.10;;;;;;4993009;28;20050;-73
2024/01/23 06:37:16;;;;;;;8.68;3.40;;;-0.20;94.20;;;;;;4994282;28;20041;-73
2024/01/23 06:39:42;;;;;;;7.30;2.63;;;-0.20;94.10;;;;;;4991708;28;20029;-73
2024/01/23 06:42:07;;;;;;;5.13;2.50;;;-0.20;94.10;;;;;;4989648;28;20034;-73
2024/01/23 06:44:34;;;;;;;6.22;3.00;;;-0.30;94.40;;;;;;4994400;28;20045;-74
2024/01/23 06:47:00;;;;;;;6.22;3.05;;;-0.50;95.20;;;;;;4992228;28;20981;-73
2024/01/23 06:49:26;;;;;;;6.27;2.97;;;-0.40;94.90;;;;;;4993082;28;20131;-73
2024/01/23 06:51:52;;;;;;;7.43;2.90;;;-0.30;94.60;;;;;;4994009;28;20109;-73
2024/01/23 06:54:17;;;;;;;8.80;2.92;;;-0.50;95.00;;;;;;4993134;28;20073;-73
2024/01/23 06:56:45;;;;;;;6.03;3.28;;;-0.40;94.90;;;;;;4992602;28;20511;-73
2024/01/23 06:59:12;;;;;;;9.07;3.43;;;-0.40;94.70;;;;;;4994772;28;20037;-73
2024/01/23 07:01:38;;;;;;;10.10;3.97;;;-0.50;95.10;;;;;;4993939;28;20042;-75
2024/01/23 07:04:04;;;;;;;8.63;3.37;;;-0.40;94.70;;;;;;4993337;28;20033;-75
2024/01/23 07:06:29;;;;;;;10.13;3.80;;;-0.50;95.00;;;;;;4993896;28;20034;-75
2024/01/23 07:08:55;;;;;;;7.13;3.10;;;-0.30;94.60;;;;;;4991744;28;20620;-73
2024/01/23 07:11:21;;;;;;;6.80;2.63;;;-0.20;94.60;;;;;;4989002;28;20075;-74
2024/01/23 07:13:47;;;;;;;6.75;3.15;;;-0.10;94.10;;;;;;4990559;28;20046;-73
2024/01/23 07:16:13;;;;;;;7.70;3.60;;;0.10;93.60;;;;;;4990503;28;20045;-73
2024/01/23 07:18:38;;;;;;;8.07;4.83;;;0.00;94.00;;;;;;4993642;28;20379;-73
2024/01/23 07:21:04;;;;;;;8.18;4.45;;;-0.60;96.10;;;;;;4996421;28;20101;-73
2024/01/23 07:23:30;;;;;;;7.22;4.07;;;-0.50;95.90;;;;;;4998256;28;20034;-75
2024/01/23 07:25:58;;;;;;;5.83;2.80;;;-0.50;96.00;;;;;;4993104;28;20037;-74
2024/01/23 07:28:23;;;;;;;5.30;2.28;;;-0.60;96.10;;;;;;4995435;28;20383;-75
2024/01/23 07:30:49;;;;;;;7.00;3.83;;;-0.40;95.40;;;;;;4989721;28;20022;-75
2024/01/23 07:33:15;;;;;;;8.27;2.85;;;-0.10;94.50;;;;;;4990238;28;20034;-75
2024/01/23 07:35:41;;;;;;;6.50;2.42;;;-0.10;94.00;;;;;;4988910;28;20052;-75
2024/01/23 07:38:10;;;;;;;6.72;2.95;;;-0.10;94.30;;;;;;4989817;28;20037;-76
2024/01/23 07:40:41;;;;;;;7.45;2.72;;;-0.10;94.40;;;;;;4989904;28;20471;-75
2024/01/23 07:43:07;;;;;;;5.28;2.50;;;-0.10;94.50;;;;;;4990597;28;20108;-75
2024/01/23 07:45:33;;;;;;;4.95;2.35;;;-0.10;94.80;;;;;;4988777;28;21079;-76
2024/01/23 07:47:59;;;;;;;8.65;2.92;;;0.10;93.80;;;;;;4990170;28;20602;-76
2024/01/23 07:50:24;;;;;;;5.75;2.72;;;0.60;93.10;;;;;;4990306;28;20691;-75
2024/01/23 07:52:50;;;;;;;6.90;3.17;;;0.80;93.00;;;;;;4990042;28;20037;-76
2024/01/23 07:55:16;;;;;;;5.80;2.75;;;0.60;93.00;;;;;;4989996;28;20100;-75
2024/01/23 07:57:41;;;;;;;8.00;3.70;;;0.50;93.30;;;;;;4988840;28;20030;-76
2024/01/23 08:00:07;;;;;;;14.45;7.97;;;0.20;94.70;;;;;;4988010;28;20440;-73
2024/01/23 08:02:33;;;;;;;5.38;2.97;;;0.30;93.90;;;;;;4990411;28;20139;-74
2024/01/23 08:04:59;;;;;;;9.07;3.80;;;0.50;93.40;;;;;;4989395;28;20200;-76
2024/01/23 08:07:25;;;;;;;9.50;4.53;;;0.70;93.40;;;;;;4987906;28;20528;-77
2024/01/23 08:09:51;;;;;;;8.05;3.60;;;0.80;93.40;;;;;;4992836;28;20030;-77
2024/01/23 08:12:17;;;;;;;8.23;3.88;;;0.70;93.70;;;;;;4995173;28;20116;-77
2024/01/23 08:14:44;;;;;;;10.82;4.82;;;0.50;94.10;;;;;;4989269;28;20034;-75
2024/01/23 08:17:11;;;;;;;11.85;5.47;;;0.30;96.90;;;;;;4989955;28;20056;-76
2024/01/23 08:19:39;;;;;;;9.80;4.43;;;0.10;95.20;;;;;;4990006;28;20033;-74
2024/01/23 08:22:05;;;;;;;8.20;3.92;;;0.00;96.10;;;;;;4989162;28;20030;-75
2024/01/23 08:24:31;;;;;;;10.00;4.22;;;-0.10;96.60;;;;;;4990484;28;20048;-75
2024/01/23 08:26:57;;;;;;;5.88;2.85;;;-0.10;95.30;;;;;;4990259;28;20041;-75
2024/01/23 08:29:23;;;;;;;7.38;3.53;;;0.30;94.70;;;;;;4989185;28;20771;-76
2024/01/23 08:31:48;;;;;;;9.63;3.45;;;0.60;93.50;;;;;;4989760;28;20479;-74
2024/01/23 08:34:14;;;;;;;5.80;3.17;;;0.90;93.10;;;;;;4989621;28;20056;-74
2024/01/23 08:36:40;;;;;;;6.28;3.22;;;0.90;93.40;;;;;;4988610;28;20038;-74
2024/01/23 08:39:05;;;;;;;5.43;2.33;;;1.00;92.80;;;;;;4989124;28;20045;-74
2024/01/23 08:41:31;;;;;;;9.85;3.30;;;1.00;93.00;;;;;;4989868;28;20042;-73
2024/01/23 08:43:57;;;;;;;5.72;2.40;;;1.00;93.20;;;;;;4988852;28;20045;-73
2024/01/23 08:46:22;;;;;;;5.20;2.55;;;0.90;94.80;;;;;;4987829;28;20104;-76
2024/01/23 08:48:49;;;;;;;8.18;3.40;;;1.00;94.10;;;;;;4989404;28;20117;-73
2024/01/23 08:51:15;;;;;;;7.70;3.38;;;0.70;94.10;;;;;;4990547;28;20108;-73
2024/01/23 08:53:40;;;;;;;13.25;3.90;;;0.70;93.70;;;;;;4991819;28;20030;-73
2024/01/23 08:56:08;;;;;;;9.77;4.07;;;0.60;94.40;;;;;;4991277;28;20069;-73
2024/01/23 08:58:33;;;;;;;38.20;7.82;;;0.50;95.50;;;;;;4990659;28;20037;-73
2024/01/23 09:00:59;;;;;;;14.70;4.88;;;1.00;98.70;;;;;;4991578;28;20032;-73
2024/01/23 09:03:25;;;;;;;11.70;5.18;;;0.70;95.70;;;;;;4992230;28;20763;-73
2024/01/23 09:05:50;;;;;;;10.60;4.88;;;0.20;96.30;;;;;;4990171;28;20056;-73
2024/01/23 09:08:16;;;;;;;12.15;5.90;;;0.10;96.50;;;;;;4988545;28;20038;-74
2024/01/23 09:10:42;;;;;;;12.15;5.40;;;0.00;96.70;;;;;;4992070;28;21762;-73
2024/01/23 09:13:08;;;;;;;7.00;4.05;;;0.00;96.80;;;;;;4992503;28;21384;-73
2024/01/23 09:15:35;;;;;;;8.95;4.18;;;0.20;95.00;;;;;;4991610;28;20048;-74
2024/01/23 09:18:01;;;;;;;9.43;4.55;;;0.40;95.40;;;;;;4993257;28;20068;-77
2024/01/23 09:20:27;;;;;;;7.93;3.47;;;0.40;95.50;;;;;;4992922;28;20042;-75
2024/01/23 09:22:52;;;;;;;8.15;2.90;;;0.50;94.90;;;;;;4995189;28;20038;-75
2024/01/23 09:25:18;;;;;;;5.75;2.95;;;1.50;96.90;;;;;;4995160;28;20038;-75
2024/01/23 09:27:44;;;;;;;5.18;2.90;;;1.30;93.20;;;;;;4995412;28;20117;-75
2024/01/23 09:30:11;;;;;;;8.88;3.40;;;1.00;94.10;;;;;;4995114;28;20184;-74
2024/01/23 09:32:37;;;;;;;6.72;3.30;;;0.90;94.40;;;;;;4995356;28;20046;-74
2024/01/23 09:35:02;;;;;;;8.55;3.78;;;1.00;93.90;;;;;;4994918;28;20084;-73
2024/01/23 09:37:28;;;;;;;7.53;3.22;;;1.10;93.50;;;;;;4994762;28;20022;-73
2024/01/23 09:39:54;;;;;;;5.78;2.97;;;1.10;94.00;;;;;;4995811;28;20484;-74
2024/01/23 09:42:23;;;;;;;6.93;3.40;;;0.80;94.50;;;;;;4995265;28;20104;-73
2024/01/23 09:44:53;;;;;;;5.68;2.88;;;0.80;94.50;;;;;;4993462;28;20069;-73
2024/01/23 09:47:23;;;;;;;5.43;3.00;;;0.80;94.50;;;;;;4996174;28;20467;-74
2024/01/23 09:49:51;;;;;;;10.70;3.78;;;0.90;94.20;;;;;;4994816;28;20420;-73
2024/01/23 09:52:19;;;;;;;5.88;2.88;;;0.80;94.40;;;;;;4994375;28;20046;-74
2024/01/23 09:54:45;;;;;;;8.07;3.40;;;0.90;94.60;;;;;;4993461;28;20721;-74
2024/01/23 09:57:12;;;;;;;7.13;2.83;;;0.80;94.70;;;;;;4995027;28;20030;-73
2024/01/23 09:59:38;;;;;;;7.15;3.30;;;0.90;94.10;;;;;;4995754;28;20026;-73
2024/01/23 10:02:08;;;;;;;7.53;3.80;;;0.90;94.10;;;;;;4995671;28;20472;-73
2024/01/23 10:04:35;;;;;;;8.30;3.08;;;1.10;93.50;;;;;;4993651;28;20034;-74
2024/01/23 10:07:07;;;;;;;6.53;3.00;;;1.40;92.40;;;;;;4994639;28;20601;-75
2024/01/23 10:09:33;;;;;;;6.05;3.00;;;1.50;92.70;;;;;;4994733;28;20084;-75
2024/01/23 10:11:59;;;;;;;7.88;3.30;;;1.30;93.30;;;;;;4995556;28;20545;-73
2024/01/23 10:14:25;;;;;;;6.50;3.30;;;1.20;93.70;;;;;;4994309;28;20540;-73
2024/01/23 10:16:51;;;;;;;7.60;2.85;;;1.10;94.40;;;;;;4994752;28;20034;-74
2024/01/23 10:19:16;;;;;;;6.30;3.03;;;1.30;93.00;;;;;;4995013;28;20104;-73
2024/01/23 10:21:42;;;;;;;5.80;2.97;;;1.60;92.90;;;;;;4993246;28;20038;-73
2024/01/23 10:24:08;;;;;;;8.60;4.32;;;1.50;93.30;;;;;;4994416;28;20026;-74
2024/01/23 10:26:34;;;;;;;8.32;4.07;;;1.60;92.70;;;;;;4993183;28;20037;-74
2024/01/23 10:29:02;;;;;;;12.18;4.90;;;1.60;92.70;;;;;;4993763;28;20034;-73
2024/01/23 10:31:28;;;;;;;6.38;3.33;;;1.70;92.40;;;;;;4994039;28;20064;-74
2024/01/23 10:33:53;;;;;;;6.38;3.55;;;1.80;92.40;;;;;;4991942;28;20080;-73
2024/01/23 10:36:20;;;;;;;9.75;4.43;;;1.80;92.60;;;;;;4991421;28;20451;-73
2024/01/23 10:38:50;;;;;;;7.93;4.18;;;2.10;92.30;;;;;;4990648;28;20041;-73
2024/01/23 10:41:17;;;;;;;6.35;3.58;;;2.20;92.40;;;;;;4990832;28;20038;-74
2024/01/23 10:43:45;;;;;;;5.75;3.50;;;2.20;92.40;;;;;;4994259;28;20038;-73
2024/01/23 10:46:11;;;;;;;6.45;3.53;;;2.30;92.10;;;;;;4994133;28;20049;-73
2024/01/23 10:48:37;;;;;;;7.13;3.45;;;2.50;92.00;;;;;;4993769;28;20026;-73
2024/01/23 10:51:16;;;;;;;6.55;2.90;;;2.60;92.10;;;;;;4993550;28;20034;-73
2024/01/23 10:53:48;;;;;;;8.82;3.67;;;2.70;92.20;;;;;;4993840;28;20061;-74
2024/01/23 10:56:15;;;;;;;6.70;3.38;;;2.90;91.90;;;;;;4991927;28;20041;-74
2024/01/23 10:58:46;;;;;;;6.18;3.25;;;3.00;91.80;;;;;;4993481;28;20037;-74
2024/01/23 11:01:14;;;;;;;5.57;3.28;;;3.00;92.10;;;;;;4993907;28;20701;-73
2024/01/23 11:03:40;;;;;;;5.95;3.15;;;3.00;92.00;;;;;;4994174;28;20594;-73
2024/01/23 11:06:19;;;;;;;8.00;3.83;;;3.10;91.90;;;;;;4992492;28;20588;-74
2024/01/23 11:08:50;;;;;;;6.85;4.13;;;3.20;91.90;;;;;;4992639;28;20037;-73
2024/01/23 11:11:53;;;;;;;7.82;3.83;;;3.30;91.80;;;;;;4992395;28;20061;-75
2024/01/23 11:14:27;;;;;;;15.05;8.07;;;3.60;92.10;;;;;;4978529;28;20045;-73
2024/01/23 11:17:05;;;;;;;;;;;3.90;92.20;;;;;;4989813;28;20065;-74
2024/01/23 11:19:40;;;;;;;10.15;5.00;;;3.80;92.10;;;;;;4992879;28;19927;-74
2024/01/23 11:22:07;;;;;;;150.05;64.22;;;3.70;91.80;;;;;;4992688;28;20029;-74
2024/01/23 11:24:43;;;;;;;34.40;16.92;;;3.80;91.80;;;;;;4994128;28;20040;-74
2024/01/23 11:27:19;;;;;;;15.30;7.70;;;3.80;91.70;;;;;;4991747;28;20474;-74
2024/01/23 11:29:47;;;;;;;11.60;4.97;;;3.90;91.60;;;;;;4992057;28;20034;-74
2024/01/23 11:32:22;;;;;;;14.88;7.88;;;4.00;91.80;;;;;;4992612;28;20112;-73
2024/01/23 11:34:58;;;;;;;12.55;6.35;;;4.20;91.50;;;;;;4992927;28;20052;-75
2024/01/23 11:37:48;;;;;;;13.90;9.10;;;4.30;91.30;;;;;;4993783;28;20512;-74
2024/01/23 11:40:38;;;;;;;14.93;8.15;;;4.30;91.10;;;;;;4993273;28;20440;-74
2024/01/23 11:43:07;;;;;;;7.85;4.50;;;4.40;91.40;;;;;;4992269;28;20117;-74
2024/01/23 11:45:36;;;;;;;10.82;5.25;;;4.40;91.00;;;;;;4975058;28;20042;-77
2024/01/23 11:48:06;;;;;;;8.07;4.43;;;4.50;91.60;;;;;;4974194;28;20476;-74
2024/01/23 11:50:36;;;;;;;8.00;3.83;;;4.70;90.90;;;;;;4991921;28;20599;-74
2024/01/23 11:53:02;;;;;;;8.68;3.63;;;4.70;90.60;;;;;;4992538;28;20056;-73
2024/01/23 11:55:30;;;;;;;7.93;4.07;;;4.80;90.50;;;;;;4993342;28;20480;-74
2024/01/23 11:58:00;;;;;;;13.98;4.38;;;4.80;90.50;;;;;;4992500;28;20127;-74
2024/01/23 12:00:29;;;;;;;11.48;3.83;;;4.90;90.40;;;;;;4991810;28;20040;-73
2024/01/23 12:02:55;;;;;;;10.00;4.13;;;5.10;90.80;;;;;;4993505;28;20072;-73
2024/01/23 12:05:20;;;;;;;8.35;3.90;;;5.30;90.80;;;;;;4992045;28;20113;-74
2024/01/23 12:07:46;;;;;;;9.05;3.97;;;5.30;90.30;;;;;;4992502;28;20033;-75
2024/01/23 12:10:16;;;;;;;7.80;4.10;;;5.30;90.10;;;;;;4989547;28;20427;-73
2024/01/23 12:12:43;;;;;;;7.75;3.72;;;5.40;90.10;;;;;;4990157;28;20062;-72
2024/01/23 12:15:09;;;;;;;8.30;4.35;;;5.30;89.30;;;;;;4988157;28;20522;-73
2024/01/23 12:17:36;;;;;;;8.75;4.88;;;5.40;89.60;;;;;;4987936;28;20045;-73
2024/01/23 12:20:09;;;;;;;8.30;4.47;;;5.50;90.00;;;;;;4988719;28;20101;-73
2024/01/23 12:22:36;;;;;;;9.73;5.55;;;5.70;89.70;;;;;;4990149;28;20476;-72
2024/01/23 12:25:03;;;;;;;7.57;4.95;;;5.70;89.50;;;;;;4988644;28;20651;-72
2024/01/23 12:27:30;;;;;;;8.18;4.30;;;5.80;89.10;;;;;;4987949;28;20053;-74
2024/01/23 12:29:57;;;;;;;7.82;3.78;;;5.90;89.30;;;;;;4988895;28;20044;-73
2024/01/23 12:32:27;;;;;;;6.18;3.70;;;5.90;89.40;;;;;;4988782;28;20029;-72
2024/01/23 12:34:53;;;;;;;7.55;3.67;;;5.90;88.90;;;;;;4988630;28;20037;-73
2024/01/23 12:37:18;;;;;;;9.23;4.72;;;5.90;89.50;;;;;;4988363;28;20038;-73
2024/01/23 12:39:45;;;;;;;7.10;3.05;;;6.10;89.30;;;;;;4991853;28;20480;-72
2024/01/23 12:42:11;;;;;;;7.05;3.53;;;6.00;87.90;;;;;;4990956;28;20124;-72
2024/01/23 12:44:36;;;;;;;7.35;3.80;;;6.10;88.40;;;;;;4994072;28;20069;-72
2024/01/23 12:47:12;;;;;;;7.07;3.35;;;6.10;87.80;;;;;;4996922;28;20695;-72
2024/01/23 12:49:38;;;;;;;27.25;14.13;;;6.00;87.80;;;;;;4995965;28;20044;-72
2024/01/23 12:52:12;;;;;;;30.73;11.73;;;6.10;88.50;;;;;;4997160;28;20034;-73
2024/01/23 12:54:39;;;;;;;;;;;6.20;88.10;;;;;;4997906;28;20581;-73